Latest Weather Observations for Cape Byron

IDN60801

Issued at 7:32 pm EST Saturday 1 August 2015 (issued every 30 minutes, with the page automatically refreshed every 10 minutes)

About weather observations | Map of weather stations | Latest weather observations for NSW | Other Formats
Station Details ID: 058216 Name: CAPE BYRON AWS Lat: -28.64 Lon: 153.64 Height: 95.0 m
Data from the previous 72 hours. | See also: Recent months at Cape Byron
Date/Time
EST
Temp
°C
App
Temp
°C
Dew
Point
Rel
Hum
%
Delta-T
°C
Wind Press
QNH
hPa
Press
MSL
hPa
Rain
since 9 am
mm
Dir
 
Spd
km/h
Gust
km/h
Spd
kts
Gust
kts
01/07:30pm 18.3 15.0 12.7 70 3.1 N 22 32 12 17 1021.6 1021.5 0.0
01/07:00pm 18.3 15.4 13.0 71 3.0 NNW 20 32 11 17 1021.2 1021.1 0.0
01/06:30pm 18.6 15.6 13.7 73 2.8 N 22 33 12 18 1021.0 1020.9 0.0
01/06:00pm 18.8 14.6 13.6 72 3.0 N 28 41 15 22 1020.5 1020.4 0.0
01/05:34pm 18.9 14.9 14.0 73 2.8 N 28 46 15 25 1020.3 1020.1 0.0
01/05:30pm 19.0 14.5 13.8 72 3.0 N 30 46 16 25 1020.3 1020.1 0.0
01/05:00pm 19.2 14.7 13.8 71 3.1 N 30 41 16 22 1020.2 1020.0 0.0
01/04:30pm 19.5 15.5 14.1 71 3.1 N 28 43 15 23 1020.4 1020.3 0.0
01/04:00pm 19.9 15.6 14.3 70 3.3 N 30 44 16 24 1020.3 1020.1 0.0
01/03:30pm 20.0 15.5 13.9 68 3.5 N 30 41 16 22 1020.0 1019.8 0.0
01/03:00pm 20.0 16.1 14.4 70 3.3 N 28 39 15 21 1020.2 1020.0 0.0
01/02:30pm 20.2 16.9 13.9 67 3.6 NNE 24 37 13 20 1020.4 1020.3 0.0
01/02:00pm 20.2 16.3 13.4 65 3.9 NNE 26 39 14 21 1020.6 1020.5 0.0
01/01:30pm 20.2 16.6 13.2 64 4.0 NNE 24 37 13 20 1021.0 1020.9 0.0
01/01:00pm 20.4 17.2 13.1 63 4.2 NNE 22 33 12 18 1021.3 1021.2 0.0
01/12:30pm 20.3 16.9 12.5 61 4.4 N 22 32 12 17 1021.8 1021.7 0.0
01/12:00pm 20.4 17.6 12.6 61 4.4 NNE 19 28 10 15 1022.2 1022.1 0.0
01/11:30am 20.3 18.4 13.0 63 4.1 NNE 15 22 8 12 1022.8 1022.7 0.0
01/11:00am 19.9 17.7 12.2 61 4.3 N 15 20 8 11 1023.3 1023.2 0.0
01/10:30am 19.7 18.2 12.0 61 4.3 N 11 15 6 8 1023.7 1023.6 0.0
01/10:00am 19.2 17.6 10.2 56 4.8 N 9 15 5 8 1023.8 1023.7 0.0
01/09:30am 18.8 17.3 9.0 53 5.1 N 7 11 4 6 1024.1 1024.0 0.0
01/09:00am 18.8 17.6 9.6 55 4.9 NE 6 7 3 4 1024.2 1024.1 0.0
01/08:30am 16.6 15.0 8.8 60 4.0 WNW 7 9 4 5 1024.1 1024.0 0.0
01/08:00am 15.9 13.8 8.4 61 3.8 WNW 9 11 5 6 1023.8 1023.7 0.0
01/07:30am 15.3 13.0 7.6 60 3.8 WNW 9 11 5 6 1023.5 1023.4 0.0
01/07:00am 15.6 13.3 7.6 59 4.0 NW 9 11 5 6 1023.2 1023.1 0.0
01/06:30am 15.6 13.3 7.6 59 4.0 NW 9 11 5 6 1022.8 1022.7 0.0
01/06:00am 15.5 12.9 7.8 60 3.9 WNW 11 15 6 8 1022.7 1022.6 0.0
01/05:30am 16.1 14.0 8.1 59 4.1 WNW 9 11 5 6 1022.4 1022.3 0.0
01/05:00am 16.1 14.6 9.3 64 3.5 WNW 7 9 4 5 1022.2 1022.1 0.0
01/04:30am 16.1 14.6 8.3 60 4.0 NW 6 9 3 5 1022.1 1022.0 0.0
01/04:00am 16.0 14.1 7.7 58 4.2 WNW 7 11 4 6 1022.2 1022.1 0.0
01/03:30am 16.2 14.4 7.9 58 4.2 WNW 7 9 4 5 1022.3 1022.2 0.0
01/03:00am 16.1 13.8 7.6 57 4.3 NW 9 11 5 6 1022.4 1022.3 0.0
01/02:30am 16.0 14.1 7.5 57 4.3 NW 7 9 4 5 1022.7 1022.6 0.0
01/02:00am 16.4 14.4 7.3 55 4.5 NW 7 9 4 5 1022.9 1022.8 0.0
01/01:30am 16.7 14.8 7.4 54 4.7 NNW 7 9 4 5 1023.1 1023.0 0.0
01/01:00am 16.2 13.8 7.2 55 4.5 NW 9 11 5 6 1023.2 1023.1 0.0
01/12:30am 16.6 14.6 7.3 54 4.7 NNW 7 9 4 5 1023.1 1023.0 0.0
01/12:00am 16.3 13.9 7.0 54 4.6 NNW 9 11 5 6 1023.2 1023.1 0.0
 
Date/Time
EST
Temp
°C
App
Temp
°C
Dew
Point
Rel
Hum
%
Delta-T
°C
Wind Press
QNH
hPa
Press
MSL
hPa
Rain
since 9 am
mm
Dir
 
Spd
km/h
Gust
km/h
Spd
kts
Gust
kts
31/11:30pm 16.5 14.1 7.2 54 4.6 NNW 9 11 5 6 1023.2 1023.1 0.0
31/11:00pm 16.0 13.2 7.0 55 4.4 NNW 11 11 6 6 1023.2 1023.1 0.0
31/10:30pm 16.6 14.6 7.0 53 4.8 N 7 9 4 5 1023.2 1023.1 0.0
31/10:00pm 17.0 15.1 7.4 53 4.8 N 7 7 4 4 1023.3 1023.2 0.0
31/09:30pm 16.6 14.7 7.5 55 4.6 NNW 7 9 4 5 1023.1 1023.0 0.0
31/09:00pm 16.0 13.8 7.7 58 4.2 NW 9 11 5 6 1022.9 1022.8 0.0
31/08:30pm 16.2 14.0 7.9 58 4.2 NW 9 13 5 7 1022.7 1022.6 0.0
31/08:00pm 16.6 15.0 8.8 60 4.0 N 7 11 4 6 1022.3 1022.2 0.0
31/07:30pm 17.7 16.1 8.0 53 5.0 ENE 6 9 3 5 1022.1 1022.0 0.0
31/07:00pm 17.5 15.2 7.5 52 5.0 E 9 11 5 6 1021.8 1021.7 0.0
31/06:30pm 16.9 14.2 7.5 54 4.7 E 11 13 6 7 1021.5 1021.4 0.0
31/06:00pm 17.0 13.9 7.1 52 4.9 E 13 15 7 8 1021.2 1021.1 0.0
31/05:30pm 16.8 14.2 9.2 61 4.0 E 13 17 7 9 1021.1 1021.0 0.0
31/05:00pm 17.4 15.3 9.6 60 4.1 E 11 15 6 8 1020.8 1020.7 0.0
31/04:30pm 18.3 16.4 9.1 55 4.8 E 9 13 5 7 1020.5 1020.4 0.0
31/04:00pm 18.9 16.5 8.8 52 5.3 ESE 11 15 6 8 1020.6 1020.5 0.0
31/03:30pm 19.0 15.7 8.1 49 5.6 SE 15 17 8 9 1020.7 1020.6 0.0
31/03:00pm 19.4 16.4 7.5 46 6.1 SE 13 17 7 9 1020.8 1020.7 0.0
31/02:30pm 19.8 16.4 7.5 45 6.3 SE 15 19 8 10 1020.9 1020.8 0.0
31/02:00pm 20.0 15.9 8.0 46 6.2 SE 19 22 10 12 1020.9 1020.8 0.0
31/01:30pm 20.3 18.0 7.3 43 6.7 SE 9 17 5 9 1021.2 1021.1 0.0
31/01:00pm 20.0 15.8 3.7 34 7.8 S 15 20 8 11 1021.4 1021.3 0.0
31/12:30pm 20.0 16.2 4.1 35 7.7 WSW 13 22 7 12 1021.7 1021.6 0.0
31/12:00pm 19.7 15.9 5.7 40 6.9 W 15 24 8 13 1021.9 1021.8 0.0
31/11:30am 19.2 15.5 6.3 43 6.4 W 15 24 8 13 1022.5 1022.4 0.0
31/11:00am 19.0 15.5 7.4 47 5.9 WNW 15 24 8 13 1022.9 1022.8 0.0
31/10:30am 19.4 18.5 11.2 59 4.5 NNW 7 13 4 7 1023.1 1023.0 0.0
31/10:00am 19.1 18.7 12.4 65 3.7 N 6 11 3 6 1023.4 1023.3 0.0
31/09:30am 18.5 17.9 12.3 67 3.5 NNE 7 11 4 6 1023.4 1023.3 0.0
31/09:00am 18.1 17.2 12.5 70 3.1 N 9 17 5 9 1023.4 1023.3 0.0
31/08:30am 16.8 16.3 12.7 77 2.3 N 7 13 4 7 1023.3 1023.2 0.0
31/08:00am 15.4 14.4 12.2 81 1.7 N 9 13 5 7 1023.2 1023.1 0.0
31/07:30am 13.7 12.9 11.7 88 1.1 NNW 7 11 4 6 1023.0 1022.9 0.0
31/07:00am 13.5 12.4 11.9 90 0.9 NW 9 13 5 7 1022.8 1022.7 0.0
31/06:30am 13.2 11.9 11.1 87 1.1 NNW 9 13 5 7 1022.2 1022.1 0.0
31/06:00am 13.3 12.2 10.7 84 1.4 WNW 7 13 4 7 1022.2 1022.1 0.0
31/05:30am 14.7 14.0 12.0 84 1.5 NNW 7 15 4 8 1021.8 1021.7 0.0
31/05:00am 14.9 14.2 12.0 83 1.6 NNW 7 15 4 8 1021.4 1021.3 0.0
31/04:30am 15.0 14.2 12.9 87 1.2 NNW 9 15 5 8 1021.6 1021.5 0.0
31/04:00am 14.6 14.1 12.5 87 1.1 NNW 7 15 4 8 1021.9 1021.8 0.0
31/03:30am 14.9 14.0 12.6 86 1.3 NNW 9 17 5 9 1022.0 1021.9 0.0
31/03:00am 14.6 13.6 12.3 86 1.3 NNW 9 13 5 7 1022.3 1022.2 0.0
31/02:30am 14.2 13.2 12.2 88 1.1 NNW 9 17 5 9 1022.7 1022.6 0.0
31/02:00am 13.7 12.9 11.6 87 1.1 NNW 7 13 4 7 1023.2 1023.1 0.0
31/01:30am 14.4 13.8 12.4 88 1.1 NNE 7 11 4 6 1023.2 1023.1 0.0
31/01:00am 14.6 14.1 12.6 88 1.1 NNW 7 15 4 8 1023.2 1023.1 0.0
31/12:30am 14.4 13.8 12.3 87 1.1 NNW 7 11 4 6 1023.5 1023.4 0.0
31/12:00am 14.9 14.3 12.2 84 1.5 NW 7 11 4 6 1023.7 1023.6 0.0
 
Date/Time
EST
Temp
°C
App
Temp
°C
Dew
Point
Rel
Hum
%
Delta-T
°C
Wind Press
QNH
hPa
Press
MSL
hPa
Rain
since 9 am
mm
Dir
 
Spd
km/h
Gust
km/h
Spd
kts
Gust
kts
30/11:30pm 16.0 15.5 13.7 86 1.3 NNE 9 15 5 8 1023.9 1023.8 0.0
30/11:00pm 15.8 14.8 13.5 86 1.3 NNW 11 15 6 8 1023.9 1023.8 0.0
30/10:30pm 15.7 15.4 13.4 86 1.3 N 7 11 4 6 1024.4 1024.3 0.0
30/10:00pm 16.3 15.7 13.4 83 1.6 NNW 9 20 5 11 1024.5 1024.4 0.0
30/09:30pm 16.5 14.7 13.4 82 1.7 NNW 15 22 8 12 1024.5 1024.4 0.0
30/09:00pm 16.6 14.9 13.7 83 1.6 N 15 24 8 13 1024.5 1024.4 0.0
30/08:30pm 17.3 14.8 13.4 78 2.2 N 19 28 10 15 1024.6 1024.5 0.0
30/08:00pm 17.1 14.0 12.2 73 2.7 N 20 28 11 15 1024.6 1024.5 0.0
30/07:30pm 17.2 14.5 12.9 76 2.4 NNE 19 24 10 13 1024.9 1024.9 0.0
30/07:00pm 17.1 15.1 12.8 76 2.4 NNE 15 24 8 13 1024.7 1024.6 0.0
30/06:30pm 17.0 15.0 12.7 76 2.4 NNE 15 20 8 11 1024.9 1024.9 0.0
30/06:00pm 17.0 15.4 12.9 77 2.3 NE 13 19 7 10 1024.9 1024.9 0.0
30/05:30pm 16.9 15.2 12.6 76 2.4 NE 13 17 7 9 1025.0 1025.0 0.0
30/05:00pm 17.0 14.9 12.5 75 2.5 NE 15 19 8 10 1024.9 1024.9 0.0
30/04:30pm 17.7 15.6 12.4 71 2.9 ENE 15 19 8 10 1024.3 1024.2 0.0
30/04:00pm 18.9 17.7 12.9 68 3.4 ENE 11 17 6 9 1024.2 1024.1 0.0
30/03:30pm 19.3 18.2 13.0 67 3.6 ENE 11 15 6 8 1024.4 1024.3 0.0
30/03:00pm 19.0 17.4 12.7 67 3.5 E 13 17 7 9 1024.5 1024.4 0.0
30/02:30pm 18.9 17.4 13.1 69 3.3 E 13 17 7 9 1024.8 1024.8 0.0
30/02:00pm 19.2 17.4 13.2 68 3.4 E 15 19 8 10 1025.3 1025.3 0.0
30/01:30pm 19.2 17.9 13.6 70 3.2 E 13 17 7 9 1025.6 1025.6 0.0
30/01:00pm 18.5 17.8 13.1 71 3.0 S 9 13 5 7 1025.9 1025.9 0.0
30/12:30pm 17.9 16.8 12.1 69 3.2 S 9 11 5 6 1026.4 1026.4 0.0
30/12:00pm 18.0 17.0 12.2 69 3.2 SSE 9 13 5 7 1027.0 1026.9 0.0
30/11:30am 17.5 16.8 12.0 70 3.0 S 7 11 4 6 1027.5 1027.4 0.0
30/11:00am 17.0 15.9 11.9 72 2.8 S 9 13 5 7 1028.0 1027.9 0.0
30/10:30am 16.1 13.7 11.5 74 2.5 WSW 15 19 8 10 1028.4 1028.3 0.0
30/10:00am 15.0 11.5 10.8 76 2.2 WSW 20 26 11 14 1028.8 1028.7 0.0
30/09:30am 14.4 10.9 10.2 76 2.2 SW 19 26 10 14 1029.0 1028.9 0.0
30/09:00am 13.6 10.0 9.8 78 1.9 SW 19 24 10 13 1029.0 1028.9 0.2
30/08:30am 13.4 9.8 10.0 80 1.8 WSW 19 24 10 13 1028.7 1028.6 0.2
30/08:00am 12.8 9.0 9.8 82 1.5 WSW 20 28 11 15 1028.4 1028.3 0.2
30/07:30am 12.6 8.4 9.6 82 1.5 WSW 22 28 12 15 1028.0 1027.9 0.2
30/07:00am 12.3 7.7 9.5 83 1.4 WSW 24 32 13 17 1027.7 1027.6 0.2
30/06:30am 12.1 8.3 9.7 85 1.2 WSW 20 26 11 14 1027.5 1027.4 0.2
30/06:00am 12.0 8.4 9.9 87 1.1 SW 19 22 10 12 1027.5 1027.4 0.2
30/05:30am 12.1 8.4 10.0 87 1.1 SW 20 26 11 14 1027.5 1027.4 0.2
30/05:00am 12.3 8.2 10.2 87 1.1 WSW 22 28 12 15 1027.5 1027.4 0.2
30/04:30am 12.2 7.8 10.3 88 1.0 WSW 24 30 13 16 1027.6 1027.5 0.2
30/04:00am 12.1 8.1 10.3 89 0.9 WSW 22 28 12 15 1027.6 1027.5 0.2
30/03:30am 12.3 7.9 10.5 89 0.9 WSW 24 32 13 17 1027.9 1027.8 0.2
30/03:00am 12.6 9.1 10.8 89 0.9 WSW 20 26 11 14 1028.0 1027.9 0.2
30/02:30am 12.6 7.9 10.5 87 1.1 WSW 26 33 14 18 1028.2 1028.1 0.2
30/02:00am 12.5 7.3 10.4 87 1.1 WSW 28 33 15 18 1028.3 1028.2 0.2
30/01:30am 12.7 8.5 11.1 90 0.8 WSW 24 32 13 17 1028.5 1028.4 0.2
30/01:00am 12.6 7.6 11.0 90 0.8 SW 28 32 15 17 1028.9 1028.8 0.2
30/12:30am 13.0 9.6 11.4 90 0.9 SW 20 26 11 14 1029.1 1029.0 0.2
30/12:00am 13.2 9.1 11.4 89 1.0 SW 24 30 13 16 1029.3 1029.2 0.2
 
Date/Time
EST
Temp
°C
App
Temp
°C
Dew
Point
Rel
Hum
%
Delta-T
°C
Wind Press
QNH
hPa
Press
MSL
hPa
Rain
since 9 am
mm
Dir
 
Spd
km/h
Gust
km/h
Spd
kts
Gust
kts
29/11:30pm 13.4 10.2 11.8 90 0.9 SW 20 24 11 13 1029.6 1029.5 0.2
29/11:00pm 13.7 10.6 12.1 90 0.9 SW 20 28 11 15 1030.0 1029.9 0.2
29/10:30pm 13.7 10.7 11.9 89 1.0 SW 19 24 10 13 1030.0 1029.9 0.2
29/10:00pm 13.9 10.3 11.8 87 1.1 SW 22 30 12 16 1030.1 1030.0 0.0
29/09:30pm 14.4 10.7 11.4 82 1.6 SW 22 28 12 15 1030.0 1029.9 0.0
29/09:00pm 14.2 11.0 11.4 83 1.5 SW 19 28 10 15 1029.9 1029.8 0.0
29/08:30pm 14.3 10.0 10.9 80 1.8 SW 24 32 13 17 1030.0 1029.9 0.0
29/08:00pm 14.4 9.4 11.0 80 1.8 SW 28 35 15 19 1030.1 1030.0 0.0

Other Formats:

Comma delimited format used in spreadsheet applications
http://www.bom.gov.au/fwo/IDN60801/IDN60801.94599.axf

JavaScript Object Notation format (JSON) in row-major order
http://www.bom.gov.au/fwo/IDN60801/IDN60801.94599.json